Time;durP1;ratioP1;P1;durP2;ratioP2;P2;SDS_P1;SDS_P2;PMS_P1;PMS_P2;Temp;Humidity;BMP_temperature;BMP_pressure;BME280_temperature;BME280_humidity;BME280_pressure;Samples;Min_cycle;Max_cycle;Signal;HPM_P1;HPM_P2
2023/01/07 00:02:26;;;;;;;7.70;4.15;;;;;;;10.05;61.89;100253.56;10339208;28;20057;-60
2023/01/07 00:07:28;;;;;;;3.70;2.13;;;;;;;9.95;62.30;100240.09;10346623;28;20475;-60
2023/01/07 00:12:29;;;;;;;2.83;1.50;;;;;;;10.00;62.39;100250.31;10344203;28;20050;-60
2023/01/07 00:17:31;;;;;;;3.38;1.30;;;;;;;10.03;62.38;100242.34;10344202;28;20099;-60
2023/01/07 00:22:33;;;;;;;3.15;1.23;;;;;;;10.08;62.29;100235.06;10346909;28;20042;-60
2023/01/07 00:27:34;;;;;;;2.58;1.08;;;;;;;10.14;62.17;100226.91;10345860;28;20058;-60
2023/01/07 00:32:58;;;;;;;2.47;1.00;;;;;;;10.29;61.87;100223.50;10340581;28;20050;-60
2023/01/07 00:38:00;;;;;;;1.83;1.10;;;;;;;10.26;61.74;100213.19;10344389;28;20064;-60
2023/01/07 00:43:04;;;;;;;2.13;1.17;;;;;;;10.30;61.97;100209.47;10345756;28;20046;-60
2023/01/07 00:48:05;;;;;;;3.47;1.58;;;;;;;10.32;61.80;100211.09;10344733;28;20061;-60
2023/01/07 00:53:09;;;;;;;2.42;1.50;;;;;;;10.23;62.05;100211.59;10346455;28;20053;-60
2023/01/07 00:58:15;;;;;;;2.42;1.10;;;;;;;10.10;62.47;100209.72;10343838;28;20064;-60
2023/01/07 01:03:17;;;;;;;1.75;1.30;;;;;;;9.96;62.79;100209.59;10345093;28;20054;-60
2023/01/07 01:08:20;;;;;;;2.05;1.20;;;;;;;9.94;63.11;100199.25;10344716;28;20049;-59
2023/01/07 01:13:21;;;;;;;1.90;1.30;;;;;;;10.05;63.08;100203.91;10343665;28;20144;-60
2023/01/07 01:18:23;;;;;;;2.38;1.40;;;;;;;10.12;62.77;100195.63;10344114;28;20075;-60
2023/01/07 01:23:25;;;;;;;1.92;1.30;;;;;;;10.13;62.79;100188.66;10345068;28;20050;-60
2023/01/07 01:28:26;;;;;;;3.42;1.50;;;;;;;10.14;62.87;100198.16;10343960;28;20049;-60
2023/01/07 01:33:28;;;;;;;2.03;1.17;;;;;;;10.10;62.80;100194.88;10342785;28;20050;-60
2023/01/07 01:38:29;;;;;;;3.70;1.50;;;;;;;10.21;62.54;100194.31;10344058;28;20053;-60
2023/01/07 01:43:34;;;;;;;2.45;1.33;;;;;;;10.18;62.65;100194.47;10343781;28;20042;-60
2023/01/07 01:48:48;;;;;;;4.50;1.73;;;;;;;10.13;62.93;100183.44;10344023;28;20049;-60
2023/01/07 01:53:51;;;;;;;3.45;1.60;;;;;;;10.17;62.86;100182.34;10343426;28;20050;-60
2023/01/07 01:58:59;;;;;;;3.42;1.80;;;;;;;10.21;62.59;100181.25;10337124;28;20064;-59
2023/01/07 02:04:12;;;;;;;2.83;1.40;;;;;;;10.19;62.61;100185.72;10339610;28;20056;-59
2023/01/07 02:09:14;;;;;;;2.83;1.40;;;;;;;10.10;62.86;100179.19;10339707;28;20056;-59
2023/01/07 02:14:18;;;;;;;2.03;1.35;;;;;;;10.11;62.62;100178.28;10342141;28;20050;-60
2023/01/07 02:19:56;;;;;;;2.70;1.58;;;;;;;10.10;62.72;100165.28;10342523;28;20061;-60
2023/01/07 02:25:03;;;;;;;4.40;1.75;;;;;;;10.03;62.90;100180.47;10355954;28;20042;-60
2023/01/07 02:30:37;;;;;;;2.58;1.45;;;;;;;10.05;62.73;100176.00;10356300;28;20064;-59
2023/01/07 02:35:48;;;;;;;2.75;1.58;;;;;;;10.24;62.53;100174.06;10355270;28;20068;-60
2023/01/07 02:41:09;;;;;;;3.28;1.90;;;;;;;10.18;62.81;100174.41;10356461;28;20486;-60
2023/01/07 02:46:29;;;;;;;2.85;1.50;;;;;;;10.19;62.58;100175.25;10355687;28;20119;-60
2023/01/07 02:51:33;;;;;;;3.20;1.50;;;;;;;10.20;62.40;100162.09;10356488;28;20582;-60
2023/01/07 02:56:48;;;;;;;3.08;1.42;;;;;;;10.13;62.32;100159.91;10356604;28;20061;-59
2023/01/07 03:01:55;;;;;;;2.15;1.40;;;;;;;10.22;62.11;100152.41;10358349;28;20053;-60
2023/01/07 03:07:34;;;;;;;3.17;1.65;;;;;;;10.19;62.06;100159.56;10362833;28;20053;-60
2023/01/07 03:12:50;;;;;;;3.85;1.90;;;;;;;10.22;61.99;100149.78;10361091;28;20046;-59
2023/01/07 03:18:25;;;;;;;4.57;1.50;;;;;;;10.24;61.81;100157.53;10363920;28;20057;-60
2023/01/07 03:23:28;;;;;;;2.58;1.58;;;;;;;10.32;61.91;100150.13;10363089;28;20054;-59
2023/01/07 03:28:39;;;;;;;3.90;1.70;;;;;;;10.26;62.02;100150.44;10362836;28;20049;-59
2023/01/07 03:34:06;;;;;;;3.33;1.77;;;;;;;10.16;62.41;100139.66;10357167;28;20057;-60
2023/01/07 03:39:12;;;;;;;3.17;2.05;;;;;;;10.17;62.49;100138.75;10357327;28;20068;-59
2023/01/07 03:44:13;;;;;;;3.72;2.10;;;;;;;10.13;62.50;100132.00;10356605;28;20053;-59
2023/01/07 03:49:15;;;;;;;4.05;2.10;;;;;;;10.20;62.50;100124.66;10355697;28;20490;-60
2023/01/07 03:54:17;;;;;;;3.25;2.28;;;;;;;10.13;62.78;100131.16;10355577;28;20045;-60
2023/01/07 03:59:18;;;;;;;3.78;2.88;;;;;;;10.03;62.82;100127.38;10355883;28;20061;-59
2023/01/07 04:04:20;;;;;;;4.22;3.00;;;;;;;9.85;63.31;100123.94;10350915;28;20418;-60
2023/01/07 04:09:22;;;;;;;4.35;3.10;;;;;;;9.75;63.94;100116.72;10346565;28;20542;-59
2023/01/07 04:14:23;;;;;;;4.45;3.10;;;;;;;9.73;63.75;100108.94;10347408;28;20046;-60
2023/01/07 04:19:25;;;;;;;4.63;3.10;;;;;;;9.72;63.85;100106.41;10347219;28;20054;-59
2023/01/07 04:24:26;;;;;;;4.22;3.17;;;;;;;9.77;63.86;100100.00;10347716;28;20054;-59
2023/01/07 04:29:29;;;;;;;4.80;3.10;;;;;;;9.87;63.66;100089.94;10347098;28;20045;-60
2023/01/07 04:34:31;;;;;;;4.85;3.63;;;;;;;9.90;63.63;100085.38;10346805;28;20052;-59
2023/01/07 04:39:32;;;;;;;4.60;3.30;;;;;;;9.91;63.62;100076.59;10346430;28;20458;-59
2023/01/07 04:44:34;;;;;;;5.65;3.00;;;;;;;9.85;63.77;100071.72;10347065;28;20422;-59
2023/01/07 04:49:35;;;;;;;5.72;3.00;;;;;;;9.89;63.59;100067.19;10347066;28;20060;-59
2023/01/07 04:54:37;;;;;;;4.00;2.60;;;;;;;9.80;63.66;100063.31;10346767;28;20062;-60
2023/01/07 04:59:39;;;;;;;4.15;2.70;;;;;;;9.82;63.79;100057.97;10345692;28;20062;-60
2023/01/07 05:04:40;;;;;;;4.00;2.88;;;;;;;9.82;63.48;100047.53;10345424;28;20045;-59
2023/01/07 05:09:42;;;;;;;3.97;2.58;;;;;;;9.77;63.64;100042.56;10344377;28;20514;-59
2023/01/07 05:14:43;;;;;;;4.20;2.90;;;;;;;9.76;63.80;100040.88;10345046;28;20494;-60
2023/01/07 05:19:45;;;;;;;4.88;2.60;;;;;;;9.61;64.37;100032.06;10345280;28;20049;-60
2023/01/07 05:24:47;;;;;;;3.33;2.67;;;;;;;9.75;63.81;100022.69;10345286;28;20054;-60
2023/01/07 05:29:48;;;;;;;4.72;2.72;;;;;;;9.78;64.05;100023.38;10345126;28;20054;-60
2023/01/07 05:34:50;;;;;;;4.72;2.80;;;;;;;9.75;63.86;100017.47;10342745;28;20057;-59
2023/01/07 05:39:51;;;;;;;3.60;2.42;;;;;;;9.69;63.79;100010.78;10345027;28;20053;-59
2023/01/07 05:44:53;;;;;;;4.75;2.65;;;;;;;9.74;63.81;100010.56;10345557;28;20045;-60
2023/01/07 05:49:55;;;;;;;4.30;3.00;;;;;;;9.82;63.61;100005.75;10344321;28;20045;-60
2023/01/07 05:54:56;;;;;;;5.60;3.50;;;;;;;9.82;63.80;100009.22;10358889;28;20578;-60
2023/01/07 05:59:58;;;;;;;8.15;3.60;;;;;;;9.85;63.46;100008.19;10344633;28;20066;-60
2023/01/07 06:05:00;;;;;;;4.43;3.33;;;;;;;9.86;63.27;100000.28;10343202;28;20494;-60
2023/01/07 06:10:02;;;;;;;6.03;3.65;;;;;;;9.89;63.63;100001.88;10343383;28;20133;-60
2023/01/07 06:15:06;;;;;;;5.70;3.67;;;;;;;9.88;63.49;99994.94;10343948;28;20518;-60
2023/01/07 06:20:08;;;;;;;4.63;2.97;;;;;;;9.84;63.46;99980.38;10343079;28;20462;-60
2023/01/07 06:25:11;;;;;;;4.38;2.97;;;;;;;9.86;63.45;99981.13;10344228;28;20172;-59
2023/01/07 06:30:12;;;;;;;4.55;2.90;;;;;;;9.78;63.54;99973.75;10343039;28;20398;-60
2023/01/07 06:35:14;;;;;;;5.03;2.70;;;;;;;9.70;63.54;99967.25;10335245;28;20061;-60
2023/01/07 06:40:16;;;;;;;3.63;2.80;;;;;;;9.64;63.68;99961.44;10335721;28;20086;-60
2023/01/07 06:45:17;;;;;;;4.88;3.38;;;;;;;9.51;64.06;99952.56;10338563;28;20050;-60
2023/01/07 06:50:19;;;;;;;6.40;3.08;;;;;;;9.47;64.03;99944.97;10336045;28;20050;-60
2023/01/07 06:55:21;;;;;;;3.33;2.13;;;;;;;9.43;63.96;99946.06;10339206;28;20061;-60
2023/01/07 07:00:23;;;;;;;4.07;2.60;;;;;;;9.47;63.83;99940.63;10340168;28;20672;-60
2023/01/07 07:05:26;;;;;;;5.03;2.30;;;;;;;9.52;63.79;99940.38;10337037;28;20495;-61
2023/01/07 07:10:27;;;;;;;3.45;2.20;;;;;;;9.58;63.58;99934.81;10346370;28;20054;-60
2023/01/07 07:15:29;;;;;;;4.43;2.30;;;;;;;9.61;63.42;99938.06;10347405;28;20054;-60
2023/01/07 07:20:31;;;;;;;4.50;2.60;;;;;;;9.62;63.33;99924.13;10349040;28;20050;-61
2023/01/07 07:25:33;;;;;;;4.72;2.40;;;;;;;9.45;63.58;99923.34;10347427;28;20056;-61
2023/01/07 07:30:36;;;;;;;4.05;2.00;;;;;;;9.40;63.22;99928.81;10348221;28;20060;-61
2023/01/07 07:35:48;;;;;;;2.70;1.65;;;;;;;9.58;62.56;99933.00;10343861;28;20065;-60
2023/01/07 07:40:49;;;;;;;4.53;2.53;;;;;;;9.61;62.27;99930.25;10348880;28;20060;-60
2023/01/07 07:45:51;;;;;;;4.28;1.98;;;;;;;9.62;62.02;99921.50;10343958;28;20049;-60
2023/01/07 07:50:53;;;;;;;3.20;2.13;;;;;;;9.66;61.76;99924.81;10342820;28;20410;-60
2023/01/07 07:55:54;;;;;;;4.90;3.13;;;;;;;9.75;61.62;99910.41;10344824;28;20061;-60
2023/01/07 08:00:56;;;;;;;5.22;1.80;;;;;;;9.76;61.30;99906.84;10347926;28;20077;-60
2023/01/07 08:05:58;;;;;;;4.40;2.70;;;;;;;9.80;61.30;99903.13;10342272;28;20156;-60
2023/01/07 08:11:01;;;;;;;6.03;3.10;;;;;;;9.81;61.15;99894.38;10346793;28;20050;-60
2023/01/07 08:16:03;;;;;;;4.38;2.70;;;;;;;9.72;61.15;99890.50;10343055;28;20042;-60
2023/01/07 08:21:05;;;;;;;3.00;1.95;;;;;;;9.68;61.07;99893.38;10339771;28;20057;-60
2023/01/07 08:26:07;;;;;;;2.65;1.70;;;;;;;9.79;60.89;99877.94;10342185;28;20054;-60
2023/01/07 08:31:09;;;;;;;5.82;2.00;;;;;;;9.77;60.65;99874.59;10328455;28;20782;-60
2023/01/07 08:36:10;;;;;;;3.97;1.70;;;;;;;9.77;60.41;99872.78;10334721;28;20061;-60
2023/01/07 08:41:24;;;;;;;2.20;1.33;;;;;;;9.79;60.54;99875.34;10344830;28;20054;-60
2023/01/07 08:46:25;;;;;;;3.22;1.40;;;;;;;9.92;60.04;99858.00;10342585;28;20046;-61
2023/01/07 08:51:27;;;;;;;2.33;1.30;;;;;;;9.92;59.92;99856.25;10341036;28;20049;-61
2023/01/07 08:56:29;;;;;;;3.13;1.40;;;;;;;9.95;59.98;99844.78;10341528;28;20064;-61
2023/01/07 09:01:30;;;;;;;3.78;1.40;;;;;;;9.99;59.43;99851.50;10343005;28;20790;-61
2023/01/07 09:06:32;;;;;;;4.50;1.45;;;;;;;10.04;59.52;99841.63;10341803;28;20049;-61
2023/01/07 09:11:34;;;;;;;2.72;1.30;;;;;;;10.01;59.05;99847.03;10345324;28;20061;-61
2023/01/07 09:16:36;;;;;;;5.82;1.38;;;;;;;9.97;58.67;99845.53;10344507;28;20461;-61
2023/01/07 09:21:37;;;;;;;3.67;1.50;;;;;;;10.10;59.18;99849.94;10343766;28;20050;-61
2023/01/07 09:26:39;;;;;;;2.05;1.20;;;;;;;10.19;58.57;99841.56;10345110;28;20061;-61
2023/01/07 09:31:40;;;;;;;2.15;1.27;;;;;;;10.20;58.36;99837.16;10344272;28;20490;-61
2023/01/07 09:36:42;;;;;;;4.32;1.50;;;;;;;10.24;58.18;99830.81;10343115;28;20046;-61
2023/01/07 09:41:49;;;;;;;3.95;1.20;;;;;;;10.19;57.82;99822.44;10345050;28;20057;-61
2023/01/07 09:46:53;;;;;;;3.90;1.30;;;;;;;10.23;57.62;99821.31;10343506;28;20046;-61
2023/01/07 09:52:04;;;;;;;2.53;1.20;;;;;;;10.29;57.09;99816.56;10343491;28;20057;-61
2023/01/07 09:57:12;;;;;;;2.80;1.35;;;;;;;10.32;57.01;99818.97;10345096;28;20067;-61
2023/01/07 10:02:13;;;;;;;2.72;1.20;;;;;;;10.31;57.03;99816.47;10344625;28;20041;-61
2023/01/07 10:07:27;;;;;;;3.35;1.65;;;;;;;10.38;57.29;99805.53;10345145;28;20086;-61
2023/01/07 10:13:03;;;;;;;3.88;1.70;;;;;;;10.39;57.43;99795.94;10342993;28;20395;-61
2023/01/07 10:18:31;;;;;;;4.88;1.63;;;;;;;10.44;57.40;99781.63;10342421;28;20050;-61
2023/01/07 10:23:38;;;;;;;3.63;1.73;;;;;;;10.48;56.77;99777.06;10342640;28;20064;-61
2023/01/07 10:29:00;;;;;;;3.92;1.77;;;;;;;10.74;56.50;99773.66;10343834;28;20050;-61
2023/01/07 10:34:11;;;;;;;3.85;1.67;;;;;;;10.89;56.41;99759.59;10344051;28;20390;-61
2023/01/07 10:39:28;;;;;;;4.63;1.90;;;;;;;10.86;56.50;99757.19;10340424;28;20262;-61
2023/01/07 10:44:53;;;;;;;3.00;1.80;;;;;;;10.92;55.83;99756.81;10346708;28;20200;-61
2023/01/07 10:50:19;;;;;;;3.13;1.60;;;;;;;11.00;55.48;99738.84;10346807;28;20050;-61
2023/01/07 10:55:36;;;;;;;3.05;1.63;;;;;;;11.14;55.51;99733.56;10344073;28;20042;-61
2023/01/07 11:00:39;;;;;;;3.45;1.80;;;;;;;11.25;55.18;99725.03;10344902;28;20173;-61
2023/01/07 11:05:41;;;;;;;2.83;1.70;;;;;;;11.28;54.94;99717.81;10349577;28;20054;-61
2023/01/07 11:10:43;;;;;;;2.33;1.48;;;;;;;11.17;54.58;99701.94;10347388;28;20123;-61
2023/01/07 11:15:54;;;;;;;2.92;1.60;;;;;;;11.23;54.36;99696.31;10349651;28;20390;-61
2023/01/07 11:20:56;;;;;;;;;;;;;;;11.23;53.75;99695.50;10345878;28;20132;-61
2023/01/07 11:26:12;;;;;;;2.17;1.20;;;;;;;11.64;52.81;99674.41;10347962;28;19948;-61
2023/01/07 11:31:14;;;;;;;2.75;1.30;;;;;;;11.86;52.45;99664.97;10344852;28;20058;-61
2023/01/07 11:36:16;;;;;;;3.28;1.33;;;;;;;11.83;52.39;99652.06;10348946;28;20764;-61
2023/01/07 11:41:25;;;;;;;1.67;1.23;;;;;;;11.71;52.36;99641.56;10347696;28;20062;-62
2023/01/07 11:46:30;;;;;;;2.50;1.50;;;;;;;11.93;52.34;99626.03;10343513;28;20056;-61
2023/01/07 11:51:41;;;;;;;2.60;1.60;;;;;;;11.85;51.31;99618.72;10345420;28;20044;-61
2023/01/07 11:56:43;;;;;;;2.70;1.50;;;;;;;11.85;51.99;99618.72;10337947;28;20054;-61
2023/01/07 12:01:45;;;;;;;4.25;1.77;;;;;;;11.84;52.18;99608.34;10338934;28;20054;-62
2023/01/07 12:06:49;;;;;;;4.82;1.45;;;;;;;11.76;52.36;99606.28;10342361;28;20042;-61
2023/01/07 12:11:55;;;;;;;2.95;1.65;;;;;;;11.50;52.26;99590.69;10346656;28;20517;-62
2023/01/07 12:17:14;;;;;;;1.85;1.20;;;;;;;11.54;51.61;99573.81;10340763;28;20053;-61
2023/01/07 12:22:39;;;;;;;2.85;1.50;;;;;;;11.48;51.21;99566.41;10340010;28;20085;-62
2023/01/07 12:28:07;;;;;;;4.95;1.42;;;;;;;11.41;52.47;99558.13;10347553;28;20073;-61
2023/01/07 12:33:14;;;;;;;2.38;1.50;;;;;;;11.48;51.88;99553.28;10345069;28;20881;-62
2023/01/07 12:38:49;;;;;;;2.90;1.70;;;;;;;11.51;51.68;99537.34;10345085;28;20077;-62
2023/01/07 12:44:12;;;;;;;2.95;1.75;;;;;;;11.56;52.54;99527.41;10337438;28;20124;-61
2023/01/07 12:49:47;;;;;;;3.75;2.03;;;;;;;11.54;52.58;99531.91;10342783;28;20065;-62
2023/01/07 12:55:02;;;;;;;4.82;1.85;;;;;;;11.50;53.36;99515.56;10317856;28;20049;-61
2023/01/07 13:00:07;;;;;;;3.00;1.65;;;;;;;11.49;53.51;99507.81;10320682;28;20293;-62
2023/01/07 13:05:19;;;;;;;3.15;1.80;;;;;;;11.39;53.42;99501.56;10337773;28;20061;-61
2023/01/07 13:10:27;;;;;;;2.80;1.67;;;;;;;11.42;53.72;99485.66;10343396;28;20669;-61
2023/01/07 13:15:32;;;;;;;4.03;1.60;;;;;;;11.30;54.04;99482.94;10338493;28;20050;-61
2023/01/07 13:21:08;;;;;;;4.00;2.28;;;;;;;11.12;54.07;99489.44;10342610;28;20054;-61
2023/01/07 13:26:19;;;;;;;3.30;1.92;;;;;;;10.96;54.65;99486.16;10343391;28;20057;-62
2023/01/07 13:31:29;;;;;;;4.82;2.65;;;;;;;10.87;54.44;99484.16;10340841;28;20591;-61
2023/01/07 13:36:46;;;;;;;4.57;2.20;;;;;;;10.83;54.93;99472.22;10335252;28;20057;-61
2023/01/07 13:42:07;;;;;;;3.15;1.90;;;;;;;10.81;54.75;99462.81;10340947;28;20078;-61
2023/01/07 13:47:14;;;;;;;3.45;2.28;;;;;;;10.84;55.23;99468.69;10340489;28;20054;-61
2023/01/07 13:52:22;;;;;;;3.50;2.10;;;;;;;10.95;54.54;99473.19;10339496;28;20065;-61
2023/01/07 13:57:30;;;;;;;3.70;2.05;;;;;;;10.94;54.29;99469.75;10342330;28;20081;-62
2023/01/07 14:03:26;;;;;;;6.72;3.60;;;;;;;10.82;54.20;99464.50;10341171;28;20068;-61
2023/01/07 14:08:29;;;;;;;6.90;5.00;;;;;;;10.82;54.30;99452.25;10338707;28;20509;-61
2023/01/07 14:13:35;;;;;;;6.78;4.30;;;;;;;10.81;53.61;99447.13;10343249;28;20076;-61
2023/01/07 14:19:00;;;;;;;4.95;2.85;;;;;;;10.72;53.52;99443.38;10342917;28;20053;-61
2023/01/07 14:24:38;;;;;;;6.28;3.80;;;;;;;10.74;53.56;99441.50;10339674;28;20053;-61
2023/01/07 14:29:50;;;;;;;11.48;5.75;;;;;;;10.78;53.21;99429.03;10331364;28;20510;-61
2023/01/07 14:35:22;;;;;;;4.80;3.00;;;;;;;10.68;52.61;99410.53;10332381;28;20046;-61
2023/01/07 14:40:28;;;;;;;5.28;2.88;;;;;;;10.75;52.57;99410.91;10337210;28;20046;-62
2023/01/07 14:45:35;;;;;;;6.00;2.42;;;;;;;10.76;52.27;99407.38;10329910;28;20041;-61
2023/01/07 14:51:00;;;;;;;4.63;2.40;;;;;;;10.78;52.57;99415.97;10340001;28;20057;-61
2023/01/07 14:56:11;;;;;;;3.90;2.50;;;;;;;10.79;52.59;99413.22;10339804;28;20140;-61
2023/01/07 15:01:20;;;;;;;4.50;2.30;;;;;;;10.74;52.46;99417.94;10340232;28;20381;-61
2023/01/07 15:06:32;;;;;;;4.37;2.30;;;;;;;10.72;53.00;99422.44;10339670;28;20053;-62
2023/01/07 15:16:58;;;;;;;5.00;2.65;;;;;;;10.45;54.05;99425.16;10332732;28;20057;-61
2023/01/07 15:22:29;;;;;;;5.53;3.55;;;;;;;10.42;54.39;99433.19;10338427;28;20049;-62
2023/01/07 15:27:55;;;;;;;4.90;3.00;;;;;;;10.42;54.36;99420.13;10340648;28;20528;-62
2023/01/07 15:33:14;;;;;;;5.72;3.35;;;;;;;10.42;54.55;99419.28;10349490;28;20161;-62
2023/01/07 15:38:43;;;;;;;5.85;3.42;;;;;;;10.41;54.24;99409.78;10340146;28;20054;-61
2023/01/07 15:43:45;;;;;;;5.28;3.30;;;;;;;10.32;54.76;99412.97;10348119;28;20049;-61
2023/01/07 15:49:03;;;;;;;4.03;2.70;;;;;;;10.12;54.89;99413.47;10341907;28;20410;-61
2023/01/07 15:54:06;;;;;;;5.03;3.13;;;;;;;10.08;55.44;99412.00;10348269;28;20056;-61
2023/01/07 15:59:08;;;;;;;7.40;3.40;;;;;;;10.07;55.41;99410.34;10340155;28;20054;-61
2023/01/07 16:04:23;;;;;;;5.32;2.95;;;;;;;9.99;55.44;99410.81;10346929;28;20060;-61
2023/01/07 16:09:26;;;;;;;4.88;3.00;;;;;;;9.98;55.35;99392.66;10344243;28;20145;-61
2023/01/07 16:14:34;;;;;;;6.07;3.65;;;;;;;9.96;55.61;99390.16;10349326;28;20061;-61
2023/01/07 16:19:36;;;;;;;5.60;3.20;;;;;;;9.81;56.42;99377.25;10343199;28;20049;-61
2023/01/07 16:24:44;;;;;;;6.15;3.30;;;;;;;9.71;56.95;99373.56;10345186;28;20053;-61
2023/01/07 16:29:51;;;;;;;6.00;3.13;;;;;;;9.67;57.67;99378.13;10346211;28;20060;-61
2023/01/07 16:35:06;;;;;;;5.40;3.47;;;;;;;9.54;57.95;99365.00;10343573;28;20060;-61
2023/01/07 16:40:18;;;;;;;7.82;3.80;;;;;;;9.33;58.42;99368.16;10338494;28;20064;-61
2023/01/07 16:45:31;;;;;;;6.25;3.80;;;;;;;8.94;59.33;99370.66;10339419;28;20470;-61
2023/01/07 16:50:38;;;;;;;5.10;3.70;;;;;;;8.65;59.91;99359.38;10345182;28;20049;-61
2023/01/07 16:56:15;;;;;;;5.78;3.80;;;;;;;8.35;61.22;99356.88;10345449;28;20050;-61
2023/01/07 17:01:29;;;;;;;6.97;3.75;;;;;;;8.25;61.46;99357.50;10340679;28;20794;-62
2023/01/07 17:06:41;;;;;;;5.82;4.10;;;;;;;8.18;61.42;99353.59;10342492;28;20466;-62
2023/01/07 17:11:46;;;;;;;5.22;3.63;;;;;;;7.96;61.49;99344.41;10344607;28;20418;-61
2023/01/07 17:17:00;;;;;;;7.00;4.13;;;;;;;7.84;62.52;99339.06;10332530;28;20234;-61
2023/01/07 17:22:03;;;;;;;7.68;3.85;;;;;;;7.81;62.22;99321.84;10343854;28;20077;-61
2023/01/07 17:27:18;;;;;;;7.22;3.90;;;;;;;7.79;62.48;99309.88;10339910;28;20060;-61
2023/01/07 17:32:23;;;;;;;6.38;4.10;;;;;;;7.89;61.93;99334.44;10342722;28;20050;-62
2023/01/07 17:37:26;;;;;;;9.15;4.45;;;;;;;7.83;62.00;99330.41;10338704;28;20111;-62
2023/01/07 17:47:52;;;;;;;5.95;3.88;;;;;;;7.53;62.52;99337.38;10342350;28;20074;-62
2023/01/07 17:52:53;;;;;;;6.32;4.10;;;;;;;7.56;62.61;99323.38;10343348;28;20056;-61
2023/01/07 17:57:55;;;;;;;9.07;4.40;;;;;;;7.47;62.67;99331.72;10342231;28;20050;-62
2023/01/07 18:02:57;;;;;;;7.72;4.18;;;;;;;7.45;62.82;99331.78;10342914;28;20054;-61
2023/01/07 18:07:59;;;;;;;6.68;4.03;;;;;;;7.45;63.10;99325.75;10342137;28;20057;-61
2023/01/07 18:13:00;;;;;;;8.75;5.28;;;;;;;7.41;62.84;99326.81;10344203;28;20062;-61
2023/01/07 18:18:02;;;;;;;9.27;5.78;;;;;;;7.37;63.25;99327.91;10341973;28;20057;-61
2023/01/07 18:23:04;;;;;;;7.68;5.75;;;;;;;7.37;62.91;99323.56;10336711;28;20046;-61
2023/01/07 18:28:05;;;;;;;7.07;4.25;;;;;;;7.31;63.33;99318.72;10338520;28;20549;-61
2023/01/07 18:33:09;;;;;;;7.00;5.32;;;;;;;7.16;63.12;99317.78;10338084;28;20690;-62
2023/01/07 18:38:13;;;;;;;8.13;5.47;;;;;;;7.13;63.66;99319.72;10340215;28;20057;-61
2023/01/07 18:43:16;;;;;;;7.45;5.00;;;;;;;7.26;63.72;99299.09;10341172;28;20050;-61
2023/01/07 18:48:18;;;;;;;7.30;4.95;;;;;;;7.33;63.74;99300.41;10339768;28;20644;-61
2023/01/07 18:53:21;;;;;;;12.18;5.75;;;;;;;7.27;63.79;99301.59;10342823;28;20054;-61
2023/01/07 18:58:23;;;;;;;12.77;7.68;;;;;;;7.26;64.08;99289.53;10340674;28;20073;-61
2023/01/07 19:03:25;;;;;;;11.85;6.75;;;;;;;7.27;64.60;99291.19;10342619;28;20046;-62
2023/01/07 19:08:26;;;;;;;12.73;7.38;;;;;;;7.27;64.65;99264.34;10345262;28;20053;-62
2023/01/07 19:13:28;;;;;;;14.30;7.30;;;;;;;7.51;64.15;99249.94;10350231;28;20050;-62
2023/01/07 19:18:30;;;;;;;11.70;7.97;;;;;;;7.73;63.55;99256.38;10343704;28;20062;-61
2023/01/07 19:23:31;;;;;;;13.02;7.95;;;;;;;7.68;63.30;99261.03;10348584;28;20425;-61
2023/01/07 19:28:34;;;;;;;8.60;5.97;;;;;;;7.69;63.49;99275.72;10347270;28;20045;-61
2023/01/07 19:33:36;;;;;;;10.35;5.68;;;;;;;7.68;63.45;99284.47;10343359;28;20046;-61
2023/01/07 19:38:43;;;;;;;8.95;5.38;;;;;;;7.74;63.51;99278.91;10345993;28;20046;-61
2023/01/07 19:43:46;;;;;;;8.15;5.43;;;;;;;7.70;63.51;99259.19;10343469;28;20053;-61
2023/01/07 19:48:48;;;;;;;14.82;9.18;;;;;;;7.81;63.14;99277.59;10346969;28;20076;-61
2023/01/07 19:53:50;;;;;;;14.45;9.75;;;;;;;7.74;63.14;99281.50;10349242;28;20049;-60
2023/01/07 19:58:53;;;;;;;11.35;8.43;;;;;;;7.85;62.92;99263.47;10347678;28;20410;-61
2023/01/07 20:03:56;;;;;;;12.65;7.20;;;;;;;7.95;62.69;99246.41;10345708;28;20053;-61
2023/01/07 20:08:59;;;;;;;13.02;7.97;;;;;;;7.97;62.67;99241.09;10347376;28;20566;-61
2023/01/07 20:14:00;;;;;;;10.82;7.50;;;;;;;8.00;62.48;99230.50;10342784;28;20513;-61
2023/01/07 20:19:02;;;;;;;11.63;7.30;;;;;;;8.11;62.73;99219.47;10344552;28;20061;-61
2023/01/07 20:24:05;;;;;;;12.68;8.10;;;;;;;7.94;62.68;99220.44;10345893;28;20038;-61
2023/01/07 20:29:07;;;;;;;11.02;7.53;;;;;;;7.67;63.32;99228.13;10346194;28;20124;-61
2023/01/07 20:34:08;;;;;;;13.18;8.60;;;;;;;7.73;63.46;99239.97;10346669;28;20050;-61
2023/01/07 20:39:10;;;;;;;10.18;7.28;;;;;;;7.88;63.28;99226.88;10343982;28;20057;-61
2023/01/07 20:44:12;;;;;;;11.77;7.97;;;;;;;7.92;63.15;99223.16;10343739;28;20057;-61
2023/01/07 20:49:14;;;;;;;11.93;7.20;;;;;;;7.90;63.09;99217.19;10346351;28;20054;-61
2023/01/07 20:54:16;;;;;;;12.95;7.25;;;;;;;7.80;63.26;99228.25;10346495;28;20054;-61
2023/01/07 20:59:17;;;;;;;11.02;6.22;;;;;;;7.71;63.33;99213.19;10344725;28;20665;-61
2023/01/07 21:04:19;;;;;;;9.40;6.15;;;;;;;7.75;63.49;99201.66;10347892;28;20042;-61
2023/01/07 21:09:21;;;;;;;11.48;6.78;;;;;;;7.79;63.43;99196.16;10311580;28;20434;-61
2023/01/07 21:14:22;;;;;;;9.35;6.82;;;;;;;8.01;62.99;99201.78;10344969;28;20054;-61
2023/01/07 21:19:24;;;;;;;10.80;6.78;;;;;;;8.16;62.89;99207.00;10343868;28;20053;-61
2023/01/07 21:24:26;;;;;;;9.05;5.72;;;;;;;8.42;62.34;99198.41;10345060;28;20084;-61
2023/01/07 21:29:28;;;;;;;8.40;4.43;;;;;;;8.60;62.16;99181.63;10345018;28;20058;-61
2023/01/07 21:34:29;;;;;;;7.80;4.30;;;;;;;8.80;61.89;99165.53;10344630;28;20050;-61
2023/01/07 21:39:31;;;;;;;8.30;5.53;;;;;;;8.83;61.99;99165.34;10342661;28;20505;-61
2023/01/07 21:44:33;;;;;;;7.05;4.50;;;;;;;8.94;61.84;99168.09;10341268;28;20049;-61
2023/01/07 21:49:34;;;;;;;6.72;5.03;;;;;;;9.13;61.74;99170.31;10342616;28;20045;-61
2023/01/07 21:54:36;;;;;;;11.45;8.40;;;;;;;9.13;61.71;99172.94;10344103;28;20053;-61
2023/01/07 21:59:38;;;;;;;8.93;5.57;;;;;;;9.26;61.71;99163.38;10342795;28;20069;-61
2023/01/07 22:04:39;;;;;;;7.97;6.07;;;;;;;9.29;61.72;99174.44;10339165;28;20414;-61
2023/01/07 22:09:41;;;;;;;7.53;5.43;;;;;;;9.34;61.94;99177.56;10340981;28;20141;-61
2023/01/07 22:14:43;;;;;;;7.70;4.22;;;;;;;9.34;61.59;99177.56;10344010;28;20237;-61
2023/01/07 22:19:45;;;;;;;6.18;4.10;;;;;;;9.42;61.17;99150.97;10342487;28;20064;-60
2023/01/07 22:24:46;;;;;;;5.55;3.40;;;;;;;9.42;61.14;99145.75;10341890;28;20064;-61
2023/01/07 22:29:48;;;;;;;8.15;4.50;;;;;;;9.52;60.95;99146.81;10343155;28;20071;-60
2023/01/07 22:34:49;;;;;;;11.90;5.70;;;;;;;9.52;61.13;99139.78;10340918;28;20132;-60
2023/01/07 22:39:56;;;;;;;8.13;4.35;;;;;;;9.57;60.96;99153.38;10346261;28;20060;-61
2023/01/07 22:45:04;;;;;;;7.90;3.85;;;;;;;9.54;60.84;99145.72;10349403;28;20969;-61
2023/01/07 22:50:07;;;;;;;8.60;5.10;;;;;;;9.58;61.06;99143.78;10351001;28;20046;-61
2023/01/07 22:55:11;;;;;;;10.88;7.45;;;;;;;9.58;61.06;99144.59;10352648;28;20407;-60
2023/01/07 23:00:16;;;;;;;6.75;4.18;;;;;;;9.64;61.25;99141.59;10351274;28;20076;-60
2023/01/07 23:05:18;;;;;;;8.55;3.50;;;;;;;9.61;61.30;99140.94;10350410;28;20057;-60
2023/01/07 23:10:19;;;;;;;7.75;4.50;;;;;;;9.64;61.92;99127.69;10348625;28;20064;-60
2023/01/07 23:15:21;;;;;;;10.10;5.43;;;;;;;9.61;62.44;99133.94;10348753;28;20449;-60
2023/01/07 23:20:23;;;;;;;7.80;5.00;;;;;;;9.58;62.43;99131.53;10350526;28;20301;-60
2023/01/07 23:25:25;;;;;;;12.27;7.65;;;;;;;9.56;62.45;99128.19;10349675;28;20678;-60
2023/01/07 23:30:26;;;;;;;8.73;5.40;;;;;;;9.49;62.74;99098.25;10349332;28;20058;-60
2023/01/07 23:35:28;;;;;;;8.38;3.95;;;;;;;9.52;62.64;99098.00;10340154;28;20046;-61
2023/01/07 23:40:30;;;;;;;7.47;4.65;;;;;;;9.51;62.67;99091.16;10346404;28;20054;-61
2023/01/07 23:45:31;;;;;;;11.48;8.13;;;;;;;9.56;62.81;99083.00;10341674;28;20173;-61
2023/01/07 23:50:33;;;;;;;7.82;5.20;;;;;;;9.59;62.44;99074.94;10343450;28;20634;-61
2023/01/07 23:55:37;;;;;;;9.70;4.03;;;;;;;9.57;63.00;99076.81;10346962;28;20049;-60
